sensor_id;sensor_type;location;lat;lon;timestamp;P1;durP1;ratioP1;P2;durP2;ratioP2
29906;SDS011;16776;50.958;10.994;2022-12-18T00:00:43;6.38;;;3.17;;
29906;SDS011;16776;50.958;10.994;2022-12-18T00:03:11;5.15;;;2.95;;
29906;SDS011;16776;50.958;10.994;2022-12-18T00:05:45;6.68;;;3.38;;
29906;SDS011;16776;50.958;10.994;2022-12-18T00:08:12;5.32;;;2.13;;
29906;SDS011;16776;50.958;10.994;2022-12-18T00:10:38;5.32;;;2.85;;
29906;SDS011;16776;50.958;10.994;2022-12-18T00:13:05;5.15;;;2.90;;
29906;SDS011;16776;50.958;10.994;2022-12-18T00:15:32;4.70;;;3.08;;
29906;SDS011;16776;50.958;10.994;2022-12-18T00:18:00;4.57;;;2.00;;
29906;SDS011;16776;50.958;10.994;2022-12-18T00:20:27;2.65;;;1.70;;
29906;SDS011;16776;50.958;10.994;2022-12-18T00:23:02;3.85;;;1.92;;
29906;SDS011;16776;50.958;10.994;2022-12-18T00:25:29;2.22;;;1.52;;
29906;SDS011;16776;50.958;10.994;2022-12-18T00:27:55;3.47;;;2.00;;
29906;SDS011;16776;50.958;10.994;2022-12-18T00:30:22;3.83;;;2.33;;
29906;SDS011;16776;50.958;10.994;2022-12-18T00:32:48;2.90;;;1.80;;
29906;SDS011;16776;50.958;10.994;2022-12-18T00:35:16;3.45;;;1.92;;
29906;SDS011;16776;50.958;10.994;2022-12-18T00:37:43;3.35;;;1.70;;
29906;SDS011;16776;50.958;10.994;2022-12-18T00:40:10;2.95;;;1.90;;
29906;SDS011;16776;50.958;10.994;2022-12-18T00:42:37;2.78;;;1.83;;
29906;SDS011;16776;50.958;10.994;2022-12-18T00:45:21;2.42;;;1.73;;
29906;SDS011;16776;50.958;10.994;2022-12-18T00:47:48;2.22;;;1.60;;
29906;SDS011;16776;50.958;10.994;2022-12-18T00:50:14;5.15;;;2.42;;
29906;SDS011;16776;50.958;10.994;2022-12-18T00:52:42;2.88;;;2.05;;
29906;SDS011;16776;50.958;10.994;2022-12-18T00:55:09;4.38;;;1.60;;
29906;SDS011;16776;50.958;10.994;2022-12-18T00:57:37;3.88;;;1.67;;
29906;SDS011;16776;50.958;10.994;2022-12-18T01:00:04;4.53;;;2.28;;
29906;SDS011;16776;50.958;10.994;2022-12-18T01:02:32;4.57;;;1.98;;
29906;SDS011;16776;50.958;10.994;2022-12-18T01:04:58;3.13;;;1.80;;
29906;SDS011;16776;50.958;10.994;2022-12-18T01:07:26;3.88;;;1.70;;
29906;SDS011;16776;50.958;10.994;2022-12-18T01:09:53;2.58;;;1.80;;
29906;SDS011;16776;50.958;10.994;2022-12-18T01:12:19;3.25;;;1.50;;
29906;SDS011;16776;50.958;10.994;2022-12-18T01:14:46;3.13;;;1.48;;
29906;SDS011;16776;50.958;10.994;2022-12-18T01:17:13;2.50;;;1.70;;
29906;SDS011;16776;50.958;10.994;2022-12-18T01:19:39;2.67;;;1.70;;
29906;SDS011;16776;50.958;10.994;2022-12-18T01:22:06;4.43;;;2.47;;
29906;SDS011;16776;50.958;10.994;2022-12-18T01:24:34;2.25;;;1.35;;
29906;SDS011;16776;50.958;10.994;2022-12-18T01:27:01;2.47;;;1.63;;
29906;SDS011;16776;50.958;10.994;2022-12-18T01:29:28;2.78;;;1.52;;
29906;SDS011;16776;50.958;10.994;2022-12-18T01:31:57;2.92;;;1.70;;
29906;SDS011;16776;50.958;10.994;2022-12-18T01:34:23;3.55;;;1.45;;
29906;SDS011;16776;50.958;10.994;2022-12-18T01:36:50;2.65;;;2.17;;
29906;SDS011;16776;50.958;10.994;2022-12-18T01:39:17;2.97;;;1.30;;
29906;SDS011;16776;50.958;10.994;2022-12-18T01:41:46;2.70;;;1.60;;
29906;SDS011;16776;50.958;10.994;2022-12-18T01:47:25;4.30;;;2.45;;
29906;SDS011;16776;50.958;10.994;2022-12-18T01:49:55;4.20;;;2.20;;
29906;SDS011;16776;50.958;10.994;2022-12-18T01:52:24;2.88;;;1.77;;
29906;SDS011;16776;50.958;10.994;2022-12-18T01:54:52;6.85;;;2.75;;
29906;SDS011;16776;50.958;10.994;2022-12-18T01:57:20;3.53;;;2.00;;
29906;SDS011;16776;50.958;10.994;2022-12-18T01:59:50;3.90;;;1.73;;
29906;SDS011;16776;50.958;10.994;2022-12-18T02:02:20;1.85;;;1.48;;
29906;SDS011;16776;50.958;10.994;2022-12-18T02:04:47;2.88;;;1.30;;
29906;SDS011;16776;50.958;10.994;2022-12-18T02:07:23;2.22;;;1.40;;
29906;SDS011;16776;50.958;10.994;2022-12-18T02:09:59;4.32;;;1.70;;
29906;SDS011;16776;50.958;10.994;2022-12-18T02:12:30;1.92;;;1.02;;
29906;SDS011;16776;50.958;10.994;2022-12-18T02:15:10;3.05;;;1.60;;
29906;SDS011;16776;50.958;10.994;2022-12-18T02:17:42;2.33;;;1.40;;
29906;SDS011;16776;50.958;10.994;2022-12-18T02:20:13;2.90;;;1.80;;
29906;SDS011;16776;50.958;10.994;2022-12-18T02:27:53;2.90;;;1.90;;
29906;SDS011;16776;50.958;10.994;2022-12-18T02:30:26;2.92;;;1.55;;
29906;SDS011;16776;50.958;10.994;2022-12-18T02:32:55;1.88;;;1.27;;
29906;SDS011;16776;50.958;10.994;2022-12-18T02:35:24;3.80;;;1.50;;
29906;SDS011;16776;50.958;10.994;2022-12-18T02:37:53;1.38;;;1.27;;
29906;SDS011;16776;50.958;10.994;2022-12-18T02:40:22;2.65;;;1.63;;
29906;SDS011;16776;50.958;10.994;2022-12-18T02:42:53;1.88;;;1.23;;
29906;SDS011;16776;50.958;10.994;2022-12-18T02:45:20;2.08;;;1.60;;
29906;SDS011;16776;50.958;10.994;2022-12-18T02:47:48;1.73;;;1.10;;
29906;SDS011;16776;50.958;10.994;2022-12-18T02:50:17;2.80;;;1.60;;
29906;SDS011;16776;50.958;10.994;2022-12-18T02:52:52;1.88;;;1.30;;
29906;SDS011;16776;50.958;10.994;2022-12-18T02:55:28;2.53;;;2.20;;
29906;SDS011;16776;50.958;10.994;2022-12-18T02:58:11;2.47;;;1.73;;
29906;SDS011;16776;50.958;10.994;2022-12-18T03:00:43;4.72;;;1.83;;
29906;SDS011;16776;50.958;10.994;2022-12-18T03:03:18;2.45;;;1.70;;
29906;SDS011;16776;50.958;10.994;2022-12-18T03:05:50;1.75;;;1.60;;
29906;SDS011;16776;50.958;10.994;2022-12-18T03:08:20;3.20;;;2.13;;
29906;SDS011;16776;50.958;10.994;2022-12-18T03:10:49;3.20;;;1.92;;
29906;SDS011;16776;50.958;10.994;2022-12-18T03:13:22;3.20;;;1.50;;
29906;SDS011;16776;50.958;10.994;2022-12-18T03:15:53;2.63;;;1.75;;
29906;SDS011;16776;50.958;10.994;2022-12-18T03:18:23;2.22;;;1.38;;
29906;SDS011;16776;50.958;10.994;2022-12-18T03:20:53;4.40;;;1.95;;
29906;SDS011;16776;50.958;10.994;2022-12-18T03:23:25;2.30;;;2.00;;
29906;SDS011;16776;50.958;10.994;2022-12-18T03:25:56;2.25;;;1.58;;
29906;SDS011;16776;50.958;10.994;2022-12-18T03:28:27;4.93;;;1.77;;
29906;SDS011;16776;50.958;10.994;2022-12-18T03:30:59;2.35;;;1.90;;
29906;SDS011;16776;50.958;10.994;2022-12-18T03:33:29;1.70;;;1.35;;
29906;SDS011;16776;50.958;10.994;2022-12-18T03:36:00;2.13;;;1.65;;
29906;SDS011;16776;50.958;10.994;2022-12-18T03:38:29;1.83;;;1.50;;
29906;SDS011;16776;50.958;10.994;2022-12-18T03:40:58;2.72;;;2.22;;
29906;SDS011;16776;50.958;10.994;2022-12-18T03:43:32;2.15;;;1.45;;
29906;SDS011;16776;50.958;10.994;2022-12-18T03:46:06;2.92;;;2.03;;
29906;SDS011;16776;50.958;10.994;2022-12-18T03:48:41;2.03;;;1.70;;
29906;SDS011;16776;50.958;10.994;2022-12-18T03:51:11;5.07;;;2.08;;
29906;SDS011;16776;50.958;10.994;2022-12-18T03:53:44;3.53;;;2.13;;
29906;SDS011;16776;50.958;10.994;2022-12-18T03:56:16;3.58;;;2.42;;
29906;SDS011;16776;50.958;10.994;2022-12-18T03:58:48;2.60;;;2.08;;
29906;SDS011;16776;50.958;10.994;2022-12-18T04:01:19;2.78;;;1.40;;
29906;SDS011;16776;50.958;10.994;2022-12-18T04:03:49;3.55;;;1.88;;
29906;SDS011;16776;50.958;10.994;2022-12-18T04:06:16;2.45;;;2.03;;
29906;SDS011;16776;50.958;10.994;2022-12-18T04:08:44;2.60;;;1.85;;
29906;SDS011;16776;50.958;10.994;2022-12-18T04:11:14;3.50;;;2.80;;
29906;SDS011;16776;50.958;10.994;2022-12-18T04:13:41;5.40;;;3.22;;
29906;SDS011;16776;50.958;10.994;2022-12-18T04:16:10;5.03;;;2.97;;
29906;SDS011;16776;50.958;10.994;2022-12-18T04:18:37;5.93;;;2.97;;
29906;SDS011;16776;50.958;10.994;2022-12-18T04:21:03;5.88;;;2.92;;
29906;SDS011;16776;50.958;10.994;2022-12-18T04:23:32;4.93;;;3.53;;
29906;SDS011;16776;50.958;10.994;2022-12-18T04:25:59;5.93;;;3.38;;
29906;SDS011;16776;50.958;10.994;2022-12-18T04:28:25;4.30;;;3.40;;
29906;SDS011;16776;50.958;10.994;2022-12-18T04:30:52;6.68;;;3.85;;
29906;SDS011;16776;50.958;10.994;2022-12-18T04:33:20;6.35;;;3.53;;
29906;SDS011;16776;50.958;10.994;2022-12-18T04:35:46;6.13;;;4.38;;
29906;SDS011;16776;50.958;10.994;2022-12-18T04:38:13;5.15;;;3.00;;
29906;SDS011;16776;50.958;10.994;2022-12-18T04:40:42;5.25;;;2.78;;
29906;SDS011;16776;50.958;10.994;2022-12-18T04:43:09;5.72;;;3.05;;
29906;SDS011;16776;50.958;10.994;2022-12-18T04:45:39;3.95;;;2.40;;
29906;SDS011;16776;50.958;10.994;2022-12-18T04:48:06;3.75;;;2.33;;
29906;SDS011;16776;50.958;10.994;2022-12-18T04:50:34;4.43;;;2.33;;
29906;SDS011;16776;50.958;10.994;2022-12-18T04:53:00;3.38;;;2.45;;
29906;SDS011;16776;50.958;10.994;2022-12-18T04:55:27;2.85;;;1.90;;
29906;SDS011;16776;50.958;10.994;2022-12-18T04:57:53;3.75;;;2.10;;
29906;SDS011;16776;50.958;10.994;2022-12-18T05:00:20;2.92;;;1.77;;
29906;SDS011;16776;50.958;10.994;2022-12-18T05:02:48;2.28;;;1.33;;
29906;SDS011;16776;50.958;10.994;2022-12-18T05:05:14;2.75;;;1.40;;
29906;SDS011;16776;50.958;10.994;2022-12-18T05:07:46;4.50;;;2.20;;
29906;SDS011;16776;50.958;10.994;2022-12-18T05:10:15;6.22;;;2.97;;
29906;SDS011;16776;50.958;10.994;2022-12-18T05:12:41;6.13;;;3.60;;
29906;SDS011;16776;50.958;10.994;2022-12-18T05:15:22;8.27;;;4.80;;
29906;SDS011;16776;50.958;10.994;2022-12-18T05:17:48;7.22;;;4.40;;
29906;SDS011;16776;50.958;10.994;2022-12-18T05:20:15;7.20;;;4.10;;
29906;SDS011;16776;50.958;10.994;2022-12-18T05:22:43;6.97;;;3.80;;
29906;SDS011;16776;50.958;10.994;2022-12-18T05:25:11;8.98;;;4.28;;
29906;SDS011;16776;50.958;10.994;2022-12-18T05:27:37;8.00;;;4.72;;
29906;SDS011;16776;50.958;10.994;2022-12-18T05:30:04;7.38;;;3.97;;
29906;SDS011;16776;50.958;10.994;2022-12-18T05:32:32;7.38;;;4.13;;
29906;SDS011;16776;50.958;10.994;2022-12-18T05:34:58;6.82;;;4.28;;
29906;SDS011;16776;50.958;10.994;2022-12-18T05:37:25;7.25;;;4.05;;
29906;SDS011;16776;50.958;10.994;2022-12-18T05:39:52;11.13;;;4.47;;
29906;SDS011;16776;50.958;10.994;2022-12-18T05:42:22;5.70;;;3.72;;
29906;SDS011;16776;50.958;10.994;2022-12-18T05:44:48;7.60;;;3.78;;
29906;SDS011;16776;50.958;10.994;2022-12-18T05:47:15;5.25;;;3.40;;
29906;SDS011;16776;50.958;10.994;2022-12-18T05:49:41;6.40;;;4.00;;
29906;SDS011;16776;50.958;10.994;2022-12-18T05:52:08;5.90;;;3.83;;
29906;SDS011;16776;50.958;10.994;2022-12-18T05:54:34;8.63;;;3.92;;
29906;SDS011;16776;50.958;10.994;2022-12-18T05:57:01;5.57;;;3.65;;
29906;SDS011;16776;50.958;10.994;2022-12-18T05:59:29;6.00;;;3.38;;
29906;SDS011;16776;50.958;10.994;2022-12-18T06:01:55;6.65;;;3.35;;
29906;SDS011;16776;50.958;10.994;2022-12-18T06:04:22;4.57;;;2.85;;
29906;SDS011;16776;50.958;10.994;2022-12-18T06:06:49;4.07;;;3.38;;
29906;SDS011;16776;50.958;10.994;2022-12-18T06:09:15;6.93;;;4.05;;
29906;SDS011;16776;50.958;10.994;2022-12-18T06:11:42;5.57;;;3.25;;
29906;SDS011;16776;50.958;10.994;2022-12-18T06:14:08;6.32;;;4.07;;
29906;SDS011;16776;50.958;10.994;2022-12-18T06:16:37;4.03;;;2.33;;
29906;SDS011;16776;50.958;10.994;2022-12-18T06:19:04;3.38;;;2.08;;
29906;SDS011;16776;50.958;10.994;2022-12-18T06:21:31;2.92;;;1.80;;
29906;SDS011;16776;50.958;10.994;2022-12-18T06:23:59;4.72;;;2.60;;
29906;SDS011;16776;50.958;10.994;2022-12-18T06:26:25;5.28;;;2.97;;
29906;SDS011;16776;50.958;10.994;2022-12-18T06:28:52;4.35;;;2.85;;
29906;SDS011;16776;50.958;10.994;2022-12-18T06:31:18;3.78;;;2.45;;
29906;SDS011;16776;50.958;10.994;2022-12-18T06:33:46;4.18;;;2.80;;
29906;SDS011;16776;50.958;10.994;2022-12-18T06:36:13;4.43;;;2.40;;
29906;SDS011;16776;50.958;10.994;2022-12-18T06:38:42;4.78;;;3.28;;
29906;SDS011;16776;50.958;10.994;2022-12-18T06:41:10;5.18;;;4.10;;
29906;SDS011;16776;50.958;10.994;2022-12-18T06:43:39;7.55;;;4.55;;
29906;SDS011;16776;50.958;10.994;2022-12-18T06:46:06;5.22;;;3.42;;
29906;SDS011;16776;50.958;10.994;2022-12-18T06:48:33;5.28;;;3.33;;
29906;SDS011;16776;50.958;10.994;2022-12-18T06:51:01;5.63;;;3.60;;
29906;SDS011;16776;50.958;10.994;2022-12-18T06:53:27;6.13;;;3.67;;
29906;SDS011;16776;50.958;10.994;2022-12-18T06:55:59;8.30;;;4.55;;
29906;SDS011;16776;50.958;10.994;2022-12-18T06:58:26;7.88;;;3.90;;
29906;SDS011;16776;50.958;10.994;2022-12-18T07:00:53;5.70;;;3.30;;
29906;SDS011;16776;50.958;10.994;2022-12-18T07:03:20;4.65;;;3.47;;
29906;SDS011;16776;50.958;10.994;2022-12-18T07:05:46;3.92;;;3.30;;
29906;SDS011;16776;50.958;10.994;2022-12-18T07:08:14;8.40;;;4.30;;
29906;SDS011;16776;50.958;10.994;2022-12-18T07:10:42;5.68;;;3.83;;
29906;SDS011;16776;50.958;10.994;2022-12-18T07:13:09;7.80;;;4.20;;
29906;SDS011;16776;50.958;10.994;2022-12-18T07:15:36;6.85;;;3.55;;
29906;SDS011;16776;50.958;10.994;2022-12-18T07:18:03;3.97;;;3.10;;
29906;SDS011;16776;50.958;10.994;2022-12-18T07:20:29;5.85;;;3.72;;
29906;SDS011;16776;50.958;10.994;2022-12-18T07:22:56;5.07;;;2.95;;
29906;SDS011;16776;50.958;10.994;2022-12-18T07:25:24;6.78;;;4.15;;
29906;SDS011;16776;50.958;10.994;2022-12-18T07:27:50;4.43;;;3.08;;
29906;SDS011;16776;50.958;10.994;2022-12-18T07:30:17;5.57;;;2.25;;
29906;SDS011;16776;50.958;10.994;2022-12-18T07:32:44;2.97;;;2.67;;
29906;SDS011;16776;50.958;10.994;2022-12-18T07:35:10;4.38;;;3.17;;
29906;SDS011;16776;50.958;10.994;2022-12-18T07:37:37;3.85;;;2.22;;
29906;SDS011;16776;50.958;10.994;2022-12-18T07:40:04;5.35;;;3.88;;
29906;SDS011;16776;50.958;10.994;2022-12-18T07:42:32;10.00;;;5.45;;
29906;SDS011;16776;50.958;10.994;2022-12-18T07:45:00;8.45;;;4.57;;
29906;SDS011;16776;50.958;10.994;2022-12-18T07:47:27;6.60;;;3.78;;
29906;SDS011;16776;50.958;10.994;2022-12-18T07:49:56;7.07;;;3.85;;
29906;SDS011;16776;50.958;10.994;2022-12-18T07:52:23;6.95;;;4.13;;
29906;SDS011;16776;50.958;10.994;2022-12-18T07:54:49;8.70;;;4.05;;
29906;SDS011;16776;50.958;10.994;2022-12-18T07:57:16;6.20;;;4.03;;
29906;SDS011;16776;50.958;10.994;2022-12-18T07:59:44;6.93;;;4.03;;
29906;SDS011;16776;50.958;10.994;2022-12-18T08:02:11;8.52;;;4.65;;
29906;SDS011;16776;50.958;10.994;2022-12-18T08:04:38;9.25;;;4.90;;
29906;SDS011;16776;50.958;10.994;2022-12-18T08:07:04;8.23;;;5.30;;
29906;SDS011;16776;50.958;10.994;2022-12-18T08:09:33;11.57;;;5.50;;
29906;SDS011;16776;50.958;10.994;2022-12-18T08:12:00;9.90;;;5.45;;
29906;SDS011;16776;50.958;10.994;2022-12-18T08:14:29;10.75;;;6.15;;
29906;SDS011;16776;50.958;10.994;2022-12-18T08:16:57;10.07;;;5.82;;
29906;SDS011;16776;50.958;10.994;2022-12-18T08:19:24;11.80;;;6.28;;
29906;SDS011;16776;50.958;10.994;2022-12-18T08:21:51;10.95;;;7.10;;
29906;SDS011;16776;50.958;10.994;2022-12-18T08:24:17;11.30;;;6.07;;
29906;SDS011;16776;50.958;10.994;2022-12-18T08:26:44;12.60;;;7.32;;
29906;SDS011;16776;50.958;10.994;2022-12-18T08:29:10;10.02;;;5.88;;
29906;SDS011;16776;50.958;10.994;2022-12-18T08:31:37;11.13;;;6.18;;
29906;SDS011;16776;50.958;10.994;2022-12-18T08:34:05;7.80;;;6.13;;
29906;SDS011;16776;50.958;10.994;2022-12-18T08:36:31;9.75;;;6.68;;
29906;SDS011;16776;50.958;10.994;2022-12-18T08:38:58;11.50;;;6.47;;
29906;SDS011;16776;50.958;10.994;2022-12-18T08:41:24;12.80;;;7.05;;
29906;SDS011;16776;50.958;10.994;2022-12-18T08:43:51;12.32;;;7.30;;
29906;SDS011;16776;50.958;10.994;2022-12-18T08:46:35;11.32;;;6.60;;
29906;SDS011;16776;50.958;10.994;2022-12-18T08:49:05;11.27;;;6.60;;
29906;SDS011;16776;50.958;10.994;2022-12-18T08:51:34;10.40;;;6.30;;
29906;SDS011;16776;50.958;10.994;2022-12-18T08:54:01;8.93;;;5.88;;
29906;SDS011;16776;50.958;10.994;2022-12-18T08:56:28;13.10;;;7.15;;
29906;SDS011;16776;50.958;10.994;2022-12-18T08:58:56;9.73;;;5.70;;
29906;SDS011;16776;50.958;10.994;2022-12-18T09:01:22;10.82;;;6.10;;
29906;SDS011;16776;50.958;10.994;2022-12-18T09:03:49;9.55;;;6.60;;
29906;SDS011;16776;50.958;10.994;2022-12-18T09:06:18;10.07;;;6.68;;
29906;SDS011;16776;50.958;10.994;2022-12-18T09:08:45;13.38;;;7.82;;
29906;SDS011;16776;50.958;10.994;2022-12-18T09:11:19;14.43;;;7.47;;
29906;SDS011;16776;50.958;10.994;2022-12-18T09:13:47;13.60;;;8.15;;
29906;SDS011;16776;50.958;10.994;2022-12-18T09:16:13;10.70;;;6.50;;
29906;SDS011;16776;50.958;10.994;2022-12-18T09:18:40;13.88;;;8.38;;
29906;SDS011;16776;50.958;10.994;2022-12-18T09:21:07;14.32;;;7.70;;
29906;SDS011;16776;50.958;10.994;2022-12-18T09:23:36;10.45;;;7.68;;
29906;SDS011;16776;50.958;10.994;2022-12-18T09:26:03;11.82;;;6.95;;
29906;SDS011;16776;50.958;10.994;2022-12-18T09:28:29;12.45;;;7.13;;
29906;SDS011;16776;50.958;10.994;2022-12-18T09:30:58;12.68;;;7.75;;
29906;SDS011;16776;50.958;10.994;2022-12-18T09:33:25;14.15;;;7.32;;
29906;SDS011;16776;50.958;10.994;2022-12-18T09:35:51;11.18;;;6.43;;
29906;SDS011;16776;50.958;10.994;2022-12-18T09:38:19;11.23;;;6.57;;
29906;SDS011;16776;50.958;10.994;2022-12-18T09:40:48;11.90;;;6.45;;
29906;SDS011;16776;50.958;10.994;2022-12-18T09:43:22;12.70;;;6.95;;
29906;SDS011;16776;50.958;10.994;2022-12-18T09:45:53;8.85;;;5.90;;
29906;SDS011;16776;50.958;10.994;2022-12-18T09:48:28;11.80;;;7.35;;
29906;SDS011;16776;50.958;10.994;2022-12-18T09:50:59;12.15;;;6.85;;
29906;SDS011;16776;50.958;10.994;2022-12-18T09:53:30;12.60;;;6.93;;
29906;SDS011;16776;50.958;10.994;2022-12-18T09:56:06;15.25;;;7.68;;
29906;SDS011;16776;50.958;10.994;2022-12-18T09:58:39;12.50;;;6.97;;
29906;SDS011;16776;50.958;10.994;2022-12-18T10:01:11;10.85;;;7.00;;
29906;SDS011;16776;50.958;10.994;2022-12-18T10:03:40;11.75;;;6.82;;
29906;SDS011;16776;50.958;10.994;2022-12-18T10:06:07;14.45;;;8.45;;
29906;SDS011;16776;50.958;10.994;2022-12-18T10:08:40;12.87;;;8.17;;
29906;SDS011;16776;50.958;10.994;2022-12-18T10:11:20;11.98;;;6.85;;
29906;SDS011;16776;50.958;10.994;2022-12-18T10:13:54;9.00;;;6.20;;
29906;SDS011;16776;50.958;10.994;2022-12-18T10:16:27;9.73;;;5.93;;
29906;SDS011;16776;50.958;10.994;2022-12-18T10:19:16;10.38;;;5.97;;
29906;SDS011;16776;50.958;10.994;2022-12-18T10:21:51;7.95;;;5.10;;
29906;SDS011;16776;50.958;10.994;2022-12-18T10:24:29;7.57;;;5.28;;
29906;SDS011;16776;50.958;10.994;2022-12-18T10:27:11;8.95;;;5.45;;
29906;SDS011;16776;50.958;10.994;2022-12-18T10:29:41;8.70;;;5.68;;
29906;SDS011;16776;50.958;10.994;2022-12-18T10:32:13;8.45;;;5.78;;
29906;SDS011;16776;50.958;10.994;2022-12-18T10:34:45;8.57;;;5.28;;
29906;SDS011;16776;50.958;10.994;2022-12-18T10:37:14;9.32;;;5.22;;
29906;SDS011;16776;50.958;10.994;2022-12-18T10:39:43;8.45;;;5.75;;
29906;SDS011;16776;50.958;10.994;2022-12-18T10:42:14;9.07;;;5.63;;
29906;SDS011;16776;50.958;10.994;2022-12-18T10:44:43;9.70;;;6.32;;
29906;SDS011;16776;50.958;10.994;2022-12-18T10:47:12;8.18;;;5.38;;
29906;SDS011;16776;50.958;10.994;2022-12-18T10:49:47;9.20;;;5.90;;
29906;SDS011;16776;50.958;10.994;2022-12-18T10:52:20;7.88;;;5.70;;
29906;SDS011;16776;50.958;10.994;2022-12-18T10:54:49;10.95;;;5.53;;
29906;SDS011;16776;50.958;10.994;2022-12-18T10:57:34;11.93;;;6.25;;
29906;SDS011;16776;50.958;10.994;2022-12-18T11:00:22;10.27;;;6.43;;
29906;SDS011;16776;50.958;10.994;2022-12-18T11:02:50;7.78;;;4.97;;
29906;SDS011;16776;50.958;10.994;2022-12-18T11:05:25;10.20;;;6.28;;
29906;SDS011;16776;50.958;10.994;2022-12-18T11:07:54;10.38;;;6.22;;
29906;SDS011;16776;50.958;10.994;2022-12-18T11:10:25;9.40;;;5.88;;
29906;SDS011;16776;50.958;10.994;2022-12-18T11:12:56;10.55;;;6.38;;
29906;SDS011;16776;50.958;10.994;2022-12-18T11:15:36;10.80;;;6.78;;
29906;SDS011;16776;50.958;10.994;2022-12-18T11:18:03;10.00;;;6.60;;
29906;SDS011;16776;50.958;10.994;2022-12-18T11:20:31;13.43;;;7.57;;
29906;SDS011;16776;50.958;10.994;2022-12-18T11:22:59;12.05;;;7.75;;
29906;SDS011;16776;50.958;10.994;2022-12-18T11:25:28;12.65;;;7.97;;
29906;SDS011;16776;50.958;10.994;2022-12-18T11:27:58;10.93;;;6.63;;
29906;SDS011;16776;50.958;10.994;2022-12-18T11:30:26;11.43;;;6.72;;
29906;SDS011;16776;50.958;10.994;2022-12-18T11:32:59;11.27;;;7.38;;
29906;SDS011;16776;50.958;10.994;2022-12-18T11:35:38;11.95;;;7.97;;
29906;SDS011;16776;50.958;10.994;2022-12-18T11:38:12;14.52;;;7.40;;
29906;SDS011;16776;50.958;10.994;2022-12-18T11:40:45;11.85;;;6.85;;
29906;SDS011;16776;50.958;10.994;2022-12-18T11:45:49;13.02;;;7.43;;
29906;SDS011;16776;50.958;10.994;2022-12-18T11:48:21;10.38;;;7.03;;
29906;SDS011;16776;50.958;10.994;2022-12-18T11:50:52;11.65;;;7.55;;
29906;SDS011;16776;50.958;10.994;2022-12-18T11:53:20;12.63;;;6.53;;
29906;SDS011;16776;50.958;10.994;2022-12-18T11:55:52;14.40;;;7.05;;
29906;SDS011;16776;50.958;10.994;2022-12-18T11:58:32;12.27;;;6.55;;
29906;SDS011;16776;50.958;10.994;2022-12-18T12:01:12;14.75;;;7.72;;
29906;SDS011;16776;50.958;10.994;2022-12-18T12:03:53;13.73;;;7.78;;
29906;SDS011;16776;50.958;10.994;2022-12-18T12:06:46;13.73;;;8.27;;
29906;SDS011;16776;50.958;10.994;2022-12-18T12:09:26;15.32;;;7.57;;
29906;SDS011;16776;50.958;10.994;2022-12-18T12:12:06;14.00;;;7.57;;
29906;SDS011;16776;50.958;10.994;2022-12-18T12:14:45;12.43;;;7.30;;
29906;SDS011;16776;50.958;10.994;2022-12-18T12:17:24;14.48;;;7.25;;
29906;SDS011;16776;50.958;10.994;2022-12-18T12:20:00;12.15;;;6.78;;
29906;SDS011;16776;50.958;10.994;2022-12-18T12:22:35;12.60;;;7.20;;
29906;SDS011;16776;50.958;10.994;2022-12-18T12:25:16;12.25;;;7.40;;
29906;SDS011;16776;50.958;10.994;2022-12-18T12:27:50;15.45;;;7.97;;
29906;SDS011;16776;50.958;10.994;2022-12-18T12:30:31;13.25;;;7.15;;
29906;SDS011;16776;50.958;10.994;2022-12-18T12:33:13;12.73;;;7.00;;
29906;SDS011;16776;50.958;10.994;2022-12-18T12:35:51;12.95;;;7.40;;
29906;SDS011;16776;50.958;10.994;2022-12-18T12:38:25;11.32;;;6.45;;
29906;SDS011;16776;50.958;10.994;2022-12-18T12:40:57;13.43;;;7.25;;
29906;SDS011;16776;50.958;10.994;2022-12-18T12:46:00;11.57;;;6.68;;
29906;SDS011;16776;50.958;10.994;2022-12-18T12:48:35;10.57;;;6.47;;
29906;SDS011;16776;50.958;10.994;2022-12-18T12:51:08;9.35;;;6.38;;
29906;SDS011;16776;50.958;10.994;2022-12-18T12:53:40;11.13;;;7.15;;
29906;SDS011;16776;50.958;10.994;2022-12-18T12:56:07;14.55;;;7.38;;
29906;SDS011;16776;50.958;10.994;2022-12-18T12:58:38;10.80;;;6.65;;
29906;SDS011;16776;50.958;10.994;2022-12-18T13:01:16;12.25;;;6.57;;
29906;SDS011;16776;50.958;10.994;2022-12-18T13:03:52;12.18;;;6.82;;
29906;SDS011;16776;50.958;10.994;2022-12-18T13:06:27;11.75;;;6.68;;
29906;SDS011;16776;50.958;10.994;2022-12-18T13:09:04;13.98;;;7.28;;
29906;SDS011;16776;50.958;10.994;2022-12-18T13:11:35;11.35;;;6.75;;
29906;SDS011;16776;50.958;10.994;2022-12-18T13:14:23;12.20;;;7.10;;
29906;SDS011;16776;50.958;10.994;2022-12-18T13:20:02;13.85;;;7.85;;
29906;SDS011;16776;50.958;10.994;2022-12-18T13:22:34;13.05;;;6.90;;
29906;SDS011;16776;50.958;10.994;2022-12-18T13:25:03;17.05;;;7.53;;
29906;SDS011;16776;50.958;10.994;2022-12-18T13:27:57;17.05;;;7.75;;
29906;SDS011;16776;50.958;10.994;2022-12-18T13:30:48;15.10;;;7.47;;
29906;SDS011;16776;50.958;10.994;2022-12-18T13:36:13;12.23;;;7.10;;
29906;SDS011;16776;50.958;10.994;2022-12-18T13:39:08;17.92;;;9.02;;
29906;SDS011;16776;50.958;10.994;2022-12-18T13:41:37;12.60;;;7.05;;
29906;SDS011;16776;50.958;10.994;2022-12-18T13:44:12;18.90;;;8.95;;
29906;SDS011;16776;50.958;10.994;2022-12-18T13:46:48;14.13;;;8.35;;
29906;SDS011;16776;50.958;10.994;2022-12-18T13:49:20;17.20;;;8.40;;
29906;SDS011;16776;50.958;10.994;2022-12-18T13:51:49;13.55;;;7.88;;
29906;SDS011;16776;50.958;10.994;2022-12-18T13:54:18;16.48;;;7.68;;
29906;SDS011;16776;50.958;10.994;2022-12-18T13:56:48;14.15;;;8.55;;
29906;SDS011;16776;50.958;10.994;2022-12-18T13:59:17;21.52;;;11.23;;
29906;SDS011;16776;50.958;10.994;2022-12-18T14:01:46;23.70;;;12.02;;
29906;SDS011;16776;50.958;10.994;2022-12-18T14:04:20;18.58;;;8.93;;
29906;SDS011;16776;50.958;10.994;2022-12-18T14:06:53;16.38;;;7.82;;
29906;SDS011;16776;50.958;10.994;2022-12-18T14:09:24;14.63;;;7.97;;
29906;SDS011;16776;50.958;10.994;2022-12-18T14:11:54;14.10;;;7.18;;
29906;SDS011;16776;50.958;10.994;2022-12-18T14:14:45;15.07;;;7.25;;
29906;SDS011;16776;50.958;10.994;2022-12-18T14:17:14;11.90;;;6.43;;
29906;SDS011;16776;50.958;10.994;2022-12-18T14:19:43;11.55;;;6.90;;
29906;SDS011;16776;50.958;10.994;2022-12-18T14:22:14;11.05;;;6.35;;
29906;SDS011;16776;50.958;10.994;2022-12-18T14:24:42;9.98;;;6.05;;
29906;SDS011;16776;50.958;10.994;2022-12-18T14:27:17;12.43;;;6.85;;
29906;SDS011;16776;50.958;10.994;2022-12-18T14:29:49;10.38;;;6.28;;
29906;SDS011;16776;50.958;10.994;2022-12-18T14:32:16;13.27;;;7.40;;
29906;SDS011;16776;50.958;10.994;2022-12-18T14:34:44;15.05;;;6.75;;
29906;SDS011;16776;50.958;10.994;2022-12-18T14:37:12;14.95;;;7.38;;
29906;SDS011;16776;50.958;10.994;2022-12-18T14:39:40;13.63;;;7.18;;
29906;SDS011;16776;50.958;10.994;2022-12-18T14:42:17;10.32;;;5.82;;
29906;SDS011;16776;50.958;10.994;2022-12-18T14:44:45;15.55;;;8.05;;
29906;SDS011;16776;50.958;10.994;2022-12-18T14:47:14;12.27;;;6.03;;
29906;SDS011;16776;50.958;10.994;2022-12-18T14:49:42;11.75;;;5.57;;
29906;SDS011;16776;50.958;10.994;2022-12-18T14:52:13;9.88;;;5.88;;
29906;SDS011;16776;50.958;10.994;2022-12-18T14:54:48;11.38;;;6.05;;
29906;SDS011;16776;50.958;10.994;2022-12-18T14:57:18;12.25;;;6.22;;
29906;SDS011;16776;50.958;10.994;2022-12-18T14:59:48;12.68;;;6.57;;
29906;SDS011;16776;50.958;10.994;2022-12-18T15:02:18;10.13;;;5.75;;
29906;SDS011;16776;50.958;10.994;2022-12-18T15:04:47;10.52;;;6.43;;